Terminal Aerodrome Forecast
Issued by NWS

Home | Current Version | Previous Version | Text Only | Print | Product List | Glossary On
Versions: 1 2 3 4 5 6 7 8 9 10 11 12 13 14 15
000
FTUS46 KPDT 252300
TAFYKM
TAF
KYKM 252320Z 2600/2624 32008KT P6SM FEW200
     FM260200 28005KT P6SM FEW200
     FM260800 28004KT P6SM FEW200
     FM261300 28003KT P6SM FEW008
     FM261800 VRB05KT P6SM SCT200=

USA.gov is the U.S. government's official web portal to all federal, state and local government web resources and services.